This is the latest recevied weather packets stored in our database for station/object OH6NMY. If no packets are shown the sender has not sent any weather packets the latest 10 day(s).
| Time | Temp. | Humidity | Pressure | Rain* | Wind** | Luminosity | Snow |
|---|---|---|---|---|---|---|---|
| 1777468113 | 8.33° C | 36% | 1024 hPa | 0 mm | - | - | - |
| 1777465007 | 8.33° C | 36% | 1024.4 hPa | 0 mm | - | - | - |
| 1777462174 | 8.33° C | 37% | 1024.9 hPa | 0 mm | - | - | - |
| 1777458934 | 7.78° C | 39% | 1025.3 hPa | 0 mm | - | - | - |
| 1777451913 | 6.11° C | 44% | 1026.2 hPa | 0 mm | - | - | - |
| 1777443274 | 3.89° C | 59% | 1027 hPa | 0 mm | - | - | - |
| 1777441113 | 2.22° C | 69% | 1027.3 hPa | 0 mm | - | - | - |
| 1777439494 | 2.22° C | 70% | 1027.3 hPa | 0 mm | - | - | - |
| 1777438414 | 1.11° C | 73% | 1027.2 hPa | 0 mm | - | - | - |
| 1777437334 | 0.56° C | 78% | 1026.8 hPa | 0 mm | - | - | - |
| 1777435713 | -0.56° C | 82% | 1026.8 hPa | 0 mm | - | - | - |
| 1777432474 | -2.22° C | 87% | 1026.9 hPa | 0 mm | - | - | - |
| 1777430854 | -2.22° C | 88% | 1026.8 hPa | 0 mm | - | - | - |
| 1777429774 | -2.22° C | 88% | 1026.7 hPa | 0 mm | - | - | - |
| 1777428693 | -2.22° C | 88% | 1026.8 hPa | 0 mm | - | - | - |
| 1777427206 | -1.67° C | 87% | 1026.9 hPa | 0 mm | - | - | - |
| 1777425454 | -1.67° C | 87% | 1026.7 hPa | 0 mm | - | - | - |
| 1777425045 | -1.67° C | 87% | 1026.7 hPa | 0 mm | - | - | - |
| 1777419514 | -1.11° C | 83% | 1026.4 hPa | 0 mm | - | - | - |
| 1777418974 | -1.11° C | 82% | 1026.4 hPa | 0 mm | - | - | - |
| 1777415194 | -1.11° C | 75% | 1026.2 hPa | 0 mm | - | - | - |
| 1777412494 | -0.56° C | 68% | 1026.1 hPa | 0 mm | - | - | - |
| 1777410874 | 0° C | 64% | 1026.1 hPa | 0 mm | - | - | - |
| 1777409793 | 0° C | 64% | 1026 hPa | 0 mm | - | - | - |
| 1777408713 | 0° C | 63% | 1025.8 hPa | 0 mm | - | - | - |
* Rain latest hour (hover to see other rain measurements)
** Current wind speed in m/s (hover to see current wind gust speed)